sensor_id;sensor_type;location;lat;lon;timestamp;P1;durP1;ratioP1;P2;durP2;ratioP2
5277;SDS011;2662;51.194;6.614;2023-04-25T00:01:20;10.50;;;4.00;;
5277;SDS011;2662;51.194;6.614;2023-04-25T00:03:47;17.60;;;3.90;;
5277;SDS011;2662;51.194;6.614;2023-04-25T00:06:14;13.27;;;3.80;;
5277;SDS011;2662;51.194;6.614;2023-04-25T00:08:42;18.20;;;3.60;;
5277;SDS011;2662;51.194;6.614;2023-04-25T00:11:11;11.60;;;3.00;;
5277;SDS011;2662;51.194;6.614;2023-04-25T00:13:37;13.30;;;3.87;;
5277;SDS011;2662;51.194;6.614;2023-04-25T00:16:06;14.27;;;3.53;;
5277;SDS011;2662;51.194;6.614;2023-04-25T00:18:33;13.63;;;4.07;;
5277;SDS011;2662;51.194;6.614;2023-04-25T00:21:00;12.93;;;3.73;;
5277;SDS011;2662;51.194;6.614;2023-04-25T00:23:27;12.50;;;3.20;;
5277;SDS011;2662;51.194;6.614;2023-04-25T00:25:54;12.20;;;3.93;;
5277;SDS011;2662;51.194;6.614;2023-04-25T00:28:22;14.27;;;3.80;;
5277;SDS011;2662;51.194;6.614;2023-04-25T00:30:49;17.23;;;5.20;;
5277;SDS011;2662;51.194;6.614;2023-04-25T00:33:15;12.87;;;3.67;;
5277;SDS011;2662;51.194;6.614;2023-04-25T00:35:42;13.27;;;3.57;;
5277;SDS011;2662;51.194;6.614;2023-04-25T00:38:09;19.20;;;4.57;;
5277;SDS011;2662;51.194;6.614;2023-04-25T00:40:35;13.40;;;3.50;;
5277;SDS011;2662;51.194;6.614;2023-04-25T00:43:02;9.43;;;3.60;;
5277;SDS011;2662;51.194;6.614;2023-04-25T00:45:30;16.73;;;4.13;;
5277;SDS011;2662;51.194;6.614;2023-04-25T00:47:57;10.63;;;3.43;;
5277;SDS011;2662;51.194;6.614;2023-04-25T00:50:24;10.93;;;4.20;;
5277;SDS011;2662;51.194;6.614;2023-04-25T00:52:51;9.33;;;3.77;;
5277;SDS011;2662;51.194;6.614;2023-04-25T00:55:18;19.07;;;4.13;;
5277;SDS011;2662;51.194;6.614;2023-04-25T00:57:46;9.37;;;3.30;;
5277;SDS011;2662;51.194;6.614;2023-04-25T01:00:13;12.87;;;3.97;;
5277;SDS011;2662;51.194;6.614;2023-04-25T01:02:42;15.40;;;3.70;;
5277;SDS011;2662;51.194;6.614;2023-04-25T01:05:10;12.83;;;3.80;;
5277;SDS011;2662;51.194;6.614;2023-04-25T01:07:38;17.53;;;4.70;;
5277;SDS011;2662;51.194;6.614;2023-04-25T01:10:06;13.23;;;3.13;;
5277;SDS011;2662;51.194;6.614;2023-04-25T01:12:33;13.63;;;3.60;;
5277;SDS011;2662;51.194;6.614;2023-04-25T01:15:00;7.13;;;3.33;;
5277;SDS011;2662;51.194;6.614;2023-04-25T01:17:27;17.27;;;3.80;;
5277;SDS011;2662;51.194;6.614;2023-04-25T01:19:55;14.70;;;3.40;;
5277;SDS011;2662;51.194;6.614;2023-04-25T01:22:23;8.03;;;3.47;;
5277;SDS011;2662;51.194;6.614;2023-04-25T01:24:50;8.50;;;3.50;;
5277;SDS011;2662;51.194;6.614;2023-04-25T01:27:17;10.60;;;3.53;;
5277;SDS011;2662;51.194;6.614;2023-04-25T01:29:45;11.53;;;3.67;;
5277;SDS011;2662;51.194;6.614;2023-04-25T01:32:12;9.50;;;3.90;;
5277;SDS011;2662;51.194;6.614;2023-04-25T01:34:40;13.37;;;3.70;;
5277;SDS011;2662;51.194;6.614;2023-04-25T01:37:06;20.20;;;3.10;;
5277;SDS011;2662;51.194;6.614;2023-04-25T01:39:34;17.63;;;3.40;;
5277;SDS011;2662;51.194;6.614;2023-04-25T01:42:01;8.40;;;2.77;;
5277;SDS011;2662;51.194;6.614;2023-04-25T01:44:28;12.17;;;3.13;;
5277;SDS011;2662;51.194;6.614;2023-04-25T01:46:55;14.00;;;4.23;;
5277;SDS011;2662;51.194;6.614;2023-04-25T01:49:22;9.67;;;2.87;;
5277;SDS011;2662;51.194;6.614;2023-04-25T01:51:48;12.20;;;3.30;;
5277;SDS011;2662;51.194;6.614;2023-04-25T01:54:15;13.13;;;3.17;;
5277;SDS011;2662;51.194;6.614;2023-04-25T01:56:49;7.50;;;3.40;;
5277;SDS011;2662;51.194;6.614;2023-04-25T01:59:17;11.03;;;4.00;;
5277;SDS011;2662;51.194;6.614;2023-04-25T02:01:45;18.97;;;3.67;;
5277;SDS011;2662;51.194;6.614;2023-04-25T02:04:11;18.40;;;3.80;;
5277;SDS011;2662;51.194;6.614;2023-04-25T02:06:38;8.87;;;2.97;;
5277;SDS011;2662;51.194;6.614;2023-04-25T02:09:05;6.50;;;3.70;;
5277;SDS011;2662;51.194;6.614;2023-04-25T02:11:32;14.13;;;3.80;;
5277;SDS011;2662;51.194;6.614;2023-04-25T02:14:00;12.70;;;3.13;;
5277;SDS011;2662;51.194;6.614;2023-04-25T02:16:26;8.00;;;2.70;;
5277;SDS011;2662;51.194;6.614;2023-04-25T02:18:55;5.93;;;2.57;;
5277;SDS011;2662;51.194;6.614;2023-04-25T02:21:22;5.90;;;2.83;;
5277;SDS011;2662;51.194;6.614;2023-04-25T02:23:49;7.23;;;2.77;;
5277;SDS011;2662;51.194;6.614;2023-04-25T02:26:16;12.47;;;3.27;;
5277;SDS011;2662;51.194;6.614;2023-04-25T02:28:43;10.40;;;2.93;;
5277;SDS011;2662;51.194;6.614;2023-04-25T02:31:11;8.87;;;2.50;;
5277;SDS011;2662;51.194;6.614;2023-04-25T02:33:38;5.10;;;2.93;;
5277;SDS011;2662;51.194;6.614;2023-04-25T02:36:05;11.00;;;3.23;;
5277;SDS011;2662;51.194;6.614;2023-04-25T02:38:32;16.73;;;3.60;;
5277;SDS011;2662;51.194;6.614;2023-04-25T02:40:59;9.50;;;3.73;;
5277;SDS011;2662;51.194;6.614;2023-04-25T02:43:25;8.30;;;3.77;;
5277;SDS011;2662;51.194;6.614;2023-04-25T02:45:52;11.57;;;3.70;;
5277;SDS011;2662;51.194;6.614;2023-04-25T02:48:20;9.50;;;3.47;;
5277;SDS011;2662;51.194;6.614;2023-04-25T02:50:47;13.23;;;3.47;;
5277;SDS011;2662;51.194;6.614;2023-04-25T02:53:14;15.83;;;4.27;;
5277;SDS011;2662;51.194;6.614;2023-04-25T02:55:40;10.90;;;3.83;;
5277;SDS011;2662;51.194;6.614;2023-04-25T02:58:07;15.20;;;3.57;;
5277;SDS011;2662;51.194;6.614;2023-04-25T03:00:34;13.40;;;3.43;;
5277;SDS011;2662;51.194;6.614;2023-04-25T03:03:00;14.50;;;4.23;;
5277;SDS011;2662;51.194;6.614;2023-04-25T03:05:28;11.70;;;3.40;;
5277;SDS011;2662;51.194;6.614;2023-04-25T03:07:55;13.83;;;4.17;;
5277;SDS011;2662;51.194;6.614;2023-04-25T03:10:22;15.53;;;3.90;;
5277;SDS011;2662;51.194;6.614;2023-04-25T03:12:48;7.77;;;3.37;;
5277;SDS011;2662;51.194;6.614;2023-04-25T03:15:15;9.50;;;3.70;;
5277;SDS011;2662;51.194;6.614;2023-04-25T03:17:42;9.40;;;3.60;;
5277;SDS011;2662;51.194;6.614;2023-04-25T03:20:09;6.87;;;3.50;;
5277;SDS011;2662;51.194;6.614;2023-04-25T03:22:38;10.30;;;3.97;;
5277;SDS011;2662;51.194;6.614;2023-04-25T03:25:05;13.30;;;3.50;;
5277;SDS011;2662;51.194;6.614;2023-04-25T03:27:33;18.67;;;3.77;;
5277;SDS011;2662;51.194;6.614;2023-04-25T03:29:59;11.43;;;3.83;;
5277;SDS011;2662;51.194;6.614;2023-04-25T03:32:26;10.57;;;3.80;;
5277;SDS011;2662;51.194;6.614;2023-04-25T03:34:53;13.83;;;3.27;;
5277;SDS011;2662;51.194;6.614;2023-04-25T03:37:20;12.37;;;3.33;;
5277;SDS011;2662;51.194;6.614;2023-04-25T03:39:48;11.73;;;3.93;;
5277;SDS011;2662;51.194;6.614;2023-04-25T03:42:14;13.23;;;4.10;;
5277;SDS011;2662;51.194;6.614;2023-04-25T03:44:41;12.20;;;4.27;;
5277;SDS011;2662;51.194;6.614;2023-04-25T03:47:08;11.97;;;3.60;;
5277;SDS011;2662;51.194;6.614;2023-04-25T03:49:35;10.97;;;4.03;;
5277;SDS011;2662;51.194;6.614;2023-04-25T03:52:02;8.33;;;3.33;;
5277;SDS011;2662;51.194;6.614;2023-04-25T03:54:29;11.60;;;3.70;;
5277;SDS011;2662;51.194;6.614;2023-04-25T03:56:57;20.33;;;3.93;;
5277;SDS011;2662;51.194;6.614;2023-04-25T03:59:23;13.13;;;4.30;;
5277;SDS011;2662;51.194;6.614;2023-04-25T04:01:51;13.10;;;4.00;;
5277;SDS011;2662;51.194;6.614;2023-04-25T04:04:17;12.57;;;3.63;;
5277;SDS011;2662;51.194;6.614;2023-04-25T04:06:44;18.07;;;4.73;;
5277;SDS011;2662;51.194;6.614;2023-04-25T04:09:11;15.87;;;3.93;;
5277;SDS011;2662;51.194;6.614;2023-04-25T04:11:38;18.43;;;3.97;;
5277;SDS011;2662;51.194;6.614;2023-04-25T04:14:06;18.77;;;4.37;;
5277;SDS011;2662;51.194;6.614;2023-04-25T04:16:34;22.73;;;4.40;;
5277;SDS011;2662;51.194;6.614;2023-04-25T04:19:02;15.60;;;4.40;;
5277;SDS011;2662;51.194;6.614;2023-04-25T04:21:28;20.10;;;4.30;;
5277;SDS011;2662;51.194;6.614;2023-04-25T04:23:55;13.33;;;4.53;;
5277;SDS011;2662;51.194;6.614;2023-04-25T04:26:22;12.57;;;3.63;;
5277;SDS011;2662;51.194;6.614;2023-04-25T04:28:51;17.07;;;3.73;;
5277;SDS011;2662;51.194;6.614;2023-04-25T04:31:20;21.60;;;4.30;;
5277;SDS011;2662;51.194;6.614;2023-04-25T04:33:47;18.40;;;4.27;;
5277;SDS011;2662;51.194;6.614;2023-04-25T04:36:14;11.57;;;4.40;;
5277;SDS011;2662;51.194;6.614;2023-04-25T04:38:44;13.83;;;3.90;;
5277;SDS011;2662;51.194;6.614;2023-04-25T04:41:11;38.37;;;4.93;;
5277;SDS011;2662;51.194;6.614;2023-04-25T04:43:38;16.93;;;4.20;;
5277;SDS011;2662;51.194;6.614;2023-04-25T04:46:05;24.63;;;4.77;;
5277;SDS011;2662;51.194;6.614;2023-04-25T04:48:33;22.40;;;5.37;;
5277;SDS011;2662;51.194;6.614;2023-04-25T04:51:00;9.50;;;3.50;;
5277;SDS011;2662;51.194;6.614;2023-04-25T04:53:27;14.57;;;4.30;;
5277;SDS011;2662;51.194;6.614;2023-04-25T04:55:53;26.27;;;5.10;;
5277;SDS011;2662;51.194;6.614;2023-04-25T04:58:21;17.67;;;4.97;;
5277;SDS011;2662;51.194;6.614;2023-04-25T05:00:48;15.60;;;4.57;;
5277;SDS011;2662;51.194;6.614;2023-04-25T05:03:14;21.10;;;5.20;;
5277;SDS011;2662;51.194;6.614;2023-04-25T05:05:42;11.60;;;4.63;;
5277;SDS011;2662;51.194;6.614;2023-04-25T05:08:10;17.77;;;4.90;;
5277;SDS011;2662;51.194;6.614;2023-04-25T05:10:37;23.60;;;5.00;;
5277;SDS011;2662;51.194;6.614;2023-04-25T05:13:04;8.37;;;3.90;;
5277;SDS011;2662;51.194;6.614;2023-04-25T05:15:30;12.43;;;4.27;;
5277;SDS011;2662;51.194;6.614;2023-04-25T05:17:57;15.97;;;5.07;;
5277;SDS011;2662;51.194;6.614;2023-04-25T05:20:24;15.00;;;4.63;;
5277;SDS011;2662;51.194;6.614;2023-04-25T05:22:52;15.23;;;4.10;;
5277;SDS011;2662;51.194;6.614;2023-04-25T05:25:19;21.77;;;4.77;;
5277;SDS011;2662;51.194;6.614;2023-04-25T05:27:45;17.50;;;5.03;;
5277;SDS011;2662;51.194;6.614;2023-04-25T05:30:12;16.00;;;4.47;;
5277;SDS011;2662;51.194;6.614;2023-04-25T05:32:39;13.97;;;4.13;;
5277;SDS011;2662;51.194;6.614;2023-04-25T05:35:06;14.63;;;4.40;;
5277;SDS011;2662;51.194;6.614;2023-04-25T05:37:33;14.60;;;4.33;;
5277;SDS011;2662;51.194;6.614;2023-04-25T05:40:02;28.73;;;4.83;;
5277;SDS011;2662;51.194;6.614;2023-04-25T05:42:31;13.83;;;4.00;;
5277;SDS011;2662;51.194;6.614;2023-04-25T05:44:58;28.80;;;5.20;;
5277;SDS011;2662;51.194;6.614;2023-04-25T05:47:25;26.97;;;4.60;;
5277;SDS011;2662;51.194;6.614;2023-04-25T05:49:52;14.57;;;4.43;;
5277;SDS011;2662;51.194;6.614;2023-04-25T05:52:19;15.93;;;4.77;;
5277;SDS011;2662;51.194;6.614;2023-04-25T05:54:45;14.97;;;4.30;;
5277;SDS011;2662;51.194;6.614;2023-04-25T05:57:19;16.17;;;4.60;;
5277;SDS011;2662;51.194;6.614;2023-04-25T05:59:47;21.03;;;4.27;;
5277;SDS011;2662;51.194;6.614;2023-04-25T06:02:13;18.43;;;3.80;;
5277;SDS011;2662;51.194;6.614;2023-04-25T06:04:40;19.87;;;4.47;;
5277;SDS011;2662;51.194;6.614;2023-04-25T06:07:07;12.20;;;4.20;;
5277;SDS011;2662;51.194;6.614;2023-04-25T06:09:34;8.33;;;3.63;;
5277;SDS011;2662;51.194;6.614;2023-04-25T06:12:00;11.47;;;3.37;;
5277;SDS011;2662;51.194;6.614;2023-04-25T06:14:29;9.33;;;2.97;;
5277;SDS011;2662;51.194;6.614;2023-04-25T06:16:56;7.87;;;3.27;;
5277;SDS011;2662;51.194;6.614;2023-04-25T06:19:23;13.43;;;4.00;;
5277;SDS011;2662;51.194;6.614;2023-04-25T06:21:49;17.30;;;3.60;;
5277;SDS011;2662;51.194;6.614;2023-04-25T06:24:16;20.70;;;4.03;;
5277;SDS011;2662;51.194;6.614;2023-04-25T06:26:43;13.40;;;4.10;;
5277;SDS011;2662;51.194;6.614;2023-04-25T06:29:09;12.70;;;3.20;;
5277;SDS011;2662;51.194;6.614;2023-04-25T06:31:37;13.33;;;3.20;;
5277;SDS011;2662;51.194;6.614;2023-04-25T06:34:04;12.23;;;3.50;;
5277;SDS011;2662;51.194;6.614;2023-04-25T06:36:31;16.73;;;3.50;;
5277;SDS011;2662;51.194;6.614;2023-04-25T06:38:58;6.57;;;3.20;;
5277;SDS011;2662;51.194;6.614;2023-04-25T06:41:24;14.00;;;3.10;;
5277;SDS011;2662;51.194;6.614;2023-04-25T06:43:51;9.33;;;3.30;;
5277;SDS011;2662;51.194;6.614;2023-04-25T06:46:18;11.00;;;3.70;;
5277;SDS011;2662;51.194;6.614;2023-04-25T06:48:46;12.47;;;3.70;;
5277;SDS011;2662;51.194;6.614;2023-04-25T06:51:12;9.17;;;2.70;;
5277;SDS011;2662;51.194;6.614;2023-04-25T06:53:39;25.73;;;3.90;;
5277;SDS011;2662;51.194;6.614;2023-04-25T06:56:06;18.23;;;3.63;;
5277;SDS011;2662;51.194;6.614;2023-04-25T06:58:33;19.97;;;3.53;;
5277;SDS011;2662;51.194;6.614;2023-04-25T07:01:00;13.70;;;3.47;;
5277;SDS011;2662;51.194;6.614;2023-04-25T07:03:26;11.03;;;2.73;;
5277;SDS011;2662;51.194;6.614;2023-04-25T07:05:54;22.90;;;4.60;;
5277;SDS011;2662;51.194;6.614;2023-04-25T07:08:21;23.20;;;3.10;;
5277;SDS011;2662;51.194;6.614;2023-04-25T07:10:48;10.83;;;3.37;;
5277;SDS011;2662;51.194;6.614;2023-04-25T07:13:14;10.00;;;2.60;;
5277;SDS011;2662;51.194;6.614;2023-04-25T07:15:41;14.73;;;3.60;;
5277;SDS011;2662;51.194;6.614;2023-04-25T07:18:09;11.07;;;3.20;;
5277;SDS011;2662;51.194;6.614;2023-04-25T07:20:36;8.53;;;2.73;;
5277;SDS011;2662;51.194;6.614;2023-04-25T07:23:04;10.37;;;2.80;;
5277;SDS011;2662;51.194;6.614;2023-04-25T07:25:31;11.30;;;3.03;;
5277;SDS011;2662;51.194;6.614;2023-04-25T07:27:58;9.03;;;3.30;;
5277;SDS011;2662;51.194;6.614;2023-04-25T07:30:24;14.83;;;2.93;;
5277;SDS011;2662;51.194;6.614;2023-04-25T07:32:51;9.10;;;2.90;;
5277;SDS011;2662;51.194;6.614;2023-04-25T07:35:18;7.50;;;3.10;;
5277;SDS011;2662;51.194;6.614;2023-04-25T07:37:44;11.60;;;2.57;;
5277;SDS011;2662;51.194;6.614;2023-04-25T07:40:13;10.87;;;2.30;;
5277;SDS011;2662;51.194;6.614;2023-04-25T07:42:40;13.53;;;3.20;;
5277;SDS011;2662;51.194;6.614;2023-04-25T07:45:07;12.43;;;3.70;;
5277;SDS011;2662;51.194;6.614;2023-04-25T07:47:34;13.83;;;2.20;;
5277;SDS011;2662;51.194;6.614;2023-04-25T07:50:01;13.00;;;2.27;;
5277;SDS011;2662;51.194;6.614;2023-04-25T07:52:28;11.90;;;3.13;;
5277;SDS011;2662;51.194;6.614;2023-04-25T07:54:56;9.97;;;3.17;;
5277;SDS011;2662;51.194;6.614;2023-04-25T07:57:24;11.80;;;2.80;;
5277;SDS011;2662;51.194;6.614;2023-04-25T07:59:51;13.70;;;2.97;;
5277;SDS011;2662;51.194;6.614;2023-04-25T08:02:18;13.30;;;2.87;;
5277;SDS011;2662;51.194;6.614;2023-04-25T08:04:45;4.70;;;3.43;;
5277;SDS011;2662;51.194;6.614;2023-04-25T08:07:11;9.73;;;3.43;;
5277;SDS011;2662;51.194;6.614;2023-04-25T08:09:38;5.30;;;2.33;;
5277;SDS011;2662;51.194;6.614;2023-04-25T08:12:05;10.30;;;2.30;;
5277;SDS011;2662;51.194;6.614;2023-04-25T08:14:33;13.53;;;2.80;;
5277;SDS011;2662;51.194;6.614;2023-04-25T08:17:02;8.90;;;2.30;;
5277;SDS011;2662;51.194;6.614;2023-04-25T08:19:29;13.83;;;2.20;;
5277;SDS011;2662;51.194;6.614;2023-04-25T08:21:56;7.33;;;2.20;;
5277;SDS011;2662;51.194;6.614;2023-04-25T08:24:23;6.50;;;2.20;;
5277;SDS011;2662;51.194;6.614;2023-04-25T08:26:50;4.47;;;1.80;;
5277;SDS011;2662;51.194;6.614;2023-04-25T08:29:17;5.60;;;2.10;;
5277;SDS011;2662;51.194;6.614;2023-04-25T08:31:45;5.73;;;2.07;;
5277;SDS011;2662;51.194;6.614;2023-04-25T08:34:13;9.97;;;2.53;;
5277;SDS011;2662;51.194;6.614;2023-04-25T08:36:40;6.67;;;1.80;;
5277;SDS011;2662;51.194;6.614;2023-04-25T08:39:06;11.13;;;2.00;;
5277;SDS011;2662;51.194;6.614;2023-04-25T08:41:33;7.27;;;2.40;;
5277;SDS011;2662;51.194;6.614;2023-04-25T08:44:02;9.30;;;2.30;;
5277;SDS011;2662;51.194;6.614;2023-04-25T08:46:29;14.90;;;2.37;;
5277;SDS011;2662;51.194;6.614;2023-04-25T08:49:00;7.67;;;2.20;;
5277;SDS011;2662;51.194;6.614;2023-04-25T08:51:27;5.43;;;1.73;;
5277;SDS011;2662;51.194;6.614;2023-04-25T08:54:00;6.87;;;2.10;;
5277;SDS011;2662;51.194;6.614;2023-04-25T08:56:34;7.93;;;1.73;;
5277;SDS011;2662;51.194;6.614;2023-04-25T08:59:01;6.03;;;1.80;;
5277;SDS011;2662;51.194;6.614;2023-04-25T09:01:28;4.60;;;1.70;;
5277;SDS011;2662;51.194;6.614;2023-04-25T09:03:54;9.77;;;1.80;;
5277;SDS011;2662;51.194;6.614;2023-04-25T09:06:24;5.23;;;1.97;;
5277;SDS011;2662;51.194;6.614;2023-04-25T09:08:51;6.70;;;2.00;;
5277;SDS011;2662;51.194;6.614;2023-04-25T09:11:17;6.57;;;1.80;;
5277;SDS011;2662;51.194;6.614;2023-04-25T09:13:44;12.93;;;1.90;;
5277;SDS011;2662;51.194;6.614;2023-04-25T09:16:11;9.53;;;1.77;;
5277;SDS011;2662;51.194;6.614;2023-04-25T09:18:42;6.30;;;1.80;;
5277;SDS011;2662;51.194;6.614;2023-04-25T09:21:09;8.33;;;1.87;;
5277;SDS011;2662;51.194;6.614;2023-04-25T09:23:43;7.53;;;1.50;;
5277;SDS011;2662;51.194;6.614;2023-04-25T09:26:13;6.60;;;1.60;;
5277;SDS011;2662;51.194;6.614;2023-04-25T09:28:40;9.63;;;2.00;;
5277;SDS011;2662;51.194;6.614;2023-04-25T09:31:09;8.17;;;1.93;;
5277;SDS011;2662;51.194;6.614;2023-04-25T09:33:37;5.33;;;1.80;;
5277;SDS011;2662;51.194;6.614;2023-04-25T09:36:04;5.00;;;1.53;;
5277;SDS011;2662;51.194;6.614;2023-04-25T09:38:32;10.20;;;1.60;;
5277;SDS011;2662;51.194;6.614;2023-04-25T09:41:07;8.63;;;1.90;;
5277;SDS011;2662;51.194;6.614;2023-04-25T09:43:35;4.57;;;1.50;;
5277;SDS011;2662;51.194;6.614;2023-04-25T09:46:02;6.00;;;1.60;;
5277;SDS011;2662;51.194;6.614;2023-04-25T09:48:33;5.77;;;1.53;;
5277;SDS011;2662;51.194;6.614;2023-04-25T09:51:03;2.33;;;1.30;;
5277;SDS011;2662;51.194;6.614;2023-04-25T09:53:32;4.07;;;1.17;;
5277;SDS011;2662;51.194;6.614;2023-04-25T09:55:59;6.90;;;1.37;;
5277;SDS011;2662;51.194;6.614;2023-04-25T09:58:30;5.20;;;1.70;;
5277;SDS011;2662;51.194;6.614;2023-04-25T10:00:59;13.50;;;1.50;;
5277;SDS011;2662;51.194;6.614;2023-04-25T10:03:27;7.97;;;1.53;;
5277;SDS011;2662;51.194;6.614;2023-04-25T10:05:57;3.10;;;1.50;;
5277;SDS011;2662;51.194;6.614;2023-04-25T10:08:26;7.27;;;2.00;;
5277;SDS011;2662;51.194;6.614;2023-04-25T10:10:58;4.43;;;1.50;;
5277;SDS011;2662;51.194;6.614;2023-04-25T10:13:27;6.80;;;1.43;;
5277;SDS011;2662;51.194;6.614;2023-04-25T10:15:56;12.67;;;2.00;;
5277;SDS011;2662;51.194;6.614;2023-04-25T10:18:24;8.50;;;1.57;;
5277;SDS011;2662;51.194;6.614;2023-04-25T10:20:51;13.40;;;1.60;;
5277;SDS011;2662;51.194;6.614;2023-04-25T10:23:19;5.53;;;1.73;;
5277;SDS011;2662;51.194;6.614;2023-04-25T10:25:46;4.00;;;1.60;;
5277;SDS011;2662;51.194;6.614;2023-04-25T10:28:13;6.10;;;1.60;;
5277;SDS011;2662;51.194;6.614;2023-04-25T10:33:34;5.60;;;1.27;;
5277;SDS011;2662;51.194;6.614;2023-04-25T10:36:11;3.50;;;1.60;;
5277;SDS011;2662;51.194;6.614;2023-04-25T10:38:38;6.20;;;1.53;;
5277;SDS011;2662;51.194;6.614;2023-04-25T10:41:06;7.40;;;1.87;;
5277;SDS011;2662;51.194;6.614;2023-04-25T10:43:35;4.03;;;1.70;;
5277;SDS011;2662;51.194;6.614;2023-04-25T10:46:13;4.37;;;1.80;;
5277;SDS011;2662;51.194;6.614;2023-04-25T10:48:45;11.50;;;1.30;;
5277;SDS011;2662;51.194;6.614;2023-04-25T10:51:15;11.20;;;1.60;;
5277;SDS011;2662;51.194;6.614;2023-04-25T10:53:44;4.10;;;1.40;;
5277;SDS011;2662;51.194;6.614;2023-04-25T10:56:11;8.27;;;1.63;;
5277;SDS011;2662;51.194;6.614;2023-04-25T10:58:42;6.93;;;1.40;;
5277;SDS011;2662;51.194;6.614;2023-04-25T11:01:09;4.23;;;1.20;;
5277;SDS011;2662;51.194;6.614;2023-04-25T11:03:39;2.63;;;0.97;;
5277;SDS011;2662;51.194;6.614;2023-04-25T11:06:10;3.80;;;1.30;;
5277;SDS011;2662;51.194;6.614;2023-04-25T11:08:47;4.20;;;1.20;;
5277;SDS011;2662;51.194;6.614;2023-04-25T11:11:16;5.47;;;1.27;;
5277;SDS011;2662;51.194;6.614;2023-04-25T11:13:42;3.37;;;1.40;;
5277;SDS011;2662;51.194;6.614;2023-04-25T11:16:09;1.93;;;1.20;;
5277;SDS011;2662;51.194;6.614;2023-04-25T11:18:36;2.60;;;1.50;;
5277;SDS011;2662;51.194;6.614;2023-04-25T11:21:05;10.20;;;1.37;;
5277;SDS011;2662;51.194;6.614;2023-04-25T11:23:32;5.80;;;1.67;;
5277;SDS011;2662;51.194;6.614;2023-04-25T11:25:59;5.00;;;1.53;;
5277;SDS011;2662;51.194;6.614;2023-04-25T11:28:26;2.00;;;1.37;;
5277;SDS011;2662;51.194;6.614;2023-04-25T11:30:53;4.70;;;1.77;;
5277;SDS011;2662;51.194;6.614;2023-04-25T11:33:22;5.63;;;1.30;;
5277;SDS011;2662;51.194;6.614;2023-04-25T11:35:50;6.70;;;1.80;;
5277;SDS011;2662;51.194;6.614;2023-04-25T11:38:20;1.53;;;1.40;;
5277;SDS011;2662;51.194;6.614;2023-04-25T11:40:49;2.03;;;1.17;;
5277;SDS011;2662;51.194;6.614;2023-04-25T11:43:17;4.83;;;1.20;;
5277;SDS011;2662;51.194;6.614;2023-04-25T11:45:45;4.93;;;1.30;;
5277;SDS011;2662;51.194;6.614;2023-04-25T11:48:12;4.57;;;1.30;;
5277;SDS011;2662;51.194;6.614;2023-04-25T11:50:39;6.00;;;1.80;;
5277;SDS011;2662;51.194;6.614;2023-04-25T11:53:06;11.03;;;1.60;;
5277;SDS011;2662;51.194;6.614;2023-04-25T11:55:34;3.20;;;1.60;;
5277;SDS011;2662;51.194;6.614;2023-04-25T11:58:02;3.77;;;1.67;;
5277;SDS011;2662;51.194;6.614;2023-04-25T12:00:30;7.43;;;1.90;;
5277;SDS011;2662;51.194;6.614;2023-04-25T12:02:58;2.50;;;1.47;;
5277;SDS011;2662;51.194;6.614;2023-04-25T12:05:26;5.70;;;1.43;;
5277;SDS011;2662;51.194;6.614;2023-04-25T12:07:54;9.30;;;1.60;;
5277;SDS011;2662;51.194;6.614;2023-04-25T12:10:21;3.80;;;1.50;;
5277;SDS011;2662;51.194;6.614;2023-04-25T12:12:51;4.10;;;1.77;;
5277;SDS011;2662;51.194;6.614;2023-04-25T12:15:23;8.30;;;1.73;;
5277;SDS011;2662;51.194;6.614;2023-04-25T12:17:52;5.97;;;1.63;;
5277;SDS011;2662;51.194;6.614;2023-04-25T12:20:20;9.83;;;1.60;;
5277;SDS011;2662;51.194;6.614;2023-04-25T12:22:48;5.00;;;1.50;;
5277;SDS011;2662;51.194;6.614;2023-04-25T12:28:10;9.40;;;2.03;;
5277;SDS011;2662;51.194;6.614;2023-04-25T12:30:51;13.50;;;1.70;;
5277;SDS011;2662;51.194;6.614;2023-04-25T12:33:22;6.33;;;1.00;;
5277;SDS011;2662;51.194;6.614;2023-04-25T12:35:49;2.90;;;0.93;;
5277;SDS011;2662;51.194;6.614;2023-04-25T12:38:23;4.17;;;1.10;;
5277;SDS011;2662;51.194;6.614;2023-04-25T12:40:50;2.40;;;0.90;;
5277;SDS011;2662;51.194;6.614;2023-04-25T12:43:18;2.40;;;0.90;;
5277;SDS011;2662;51.194;6.614;2023-04-25T12:45:47;1.93;;;0.80;;
5277;SDS011;2662;51.194;6.614;2023-04-25T12:48:15;4.23;;;0.73;;
5277;SDS011;2662;51.194;6.614;2023-04-25T12:50:42;2.43;;;1.13;;
5277;SDS011;2662;51.194;6.614;2023-04-25T12:53:08;1.27;;;0.80;;
5277;SDS011;2662;51.194;6.614;2023-04-25T12:55:36;2.10;;;1.20;;
5277;SDS011;2662;51.194;6.614;2023-04-25T12:58:03;2.10;;;0.93;;
5277;SDS011;2662;51.194;6.614;2023-04-25T13:00:31;1.20;;;0.87;;
5277;SDS011;2662;51.194;6.614;2023-04-25T13:02:58;1.47;;;1.07;;
5277;SDS011;2662;51.194;6.614;2023-04-25T13:05:25;3.10;;;1.00;;
5277;SDS011;2662;51.194;6.614;2023-04-25T13:07:51;1.50;;;0.83;;
5277;SDS011;2662;51.194;6.614;2023-04-25T13:10:18;2.23;;;0.90;;
5277;SDS011;2662;51.194;6.614;2023-04-25T13:12:45;2.20;;;1.23;;
5277;SDS011;2662;51.194;6.614;2023-04-25T13:15:12;0.80;;;0.80;;
5277;SDS011;2662;51.194;6.614;2023-04-25T13:17:41;4.73;;;0.93;;
5277;SDS011;2662;51.194;6.614;2023-04-25T13:20:08;1.63;;;0.80;;
5277;SDS011;2662;51.194;6.614;2023-04-25T13:22:36;2.67;;;0.93;;
5277;SDS011;2662;51.194;6.614;2023-04-25T13:25:04;0.90;;;0.90;;
5277;SDS011;2662;51.194;6.614;2023-04-25T13:27:33;5.33;;;1.00;;
5277;SDS011;2662;51.194;6.614;2023-04-25T13:30:00;0.67;;;0.53;;
5277;SDS011;2662;51.194;6.614;2023-04-25T13:32:32;3.93;;;0.90;;
5277;SDS011;2662;51.194;6.614;2023-04-25T13:35:00;2.77;;;0.70;;
5277;SDS011;2662;51.194;6.614;2023-04-25T13:37:27;4.23;;;1.10;;
5277;SDS011;2662;51.194;6.614;2023-04-25T13:39:55;2.07;;;0.97;;
5277;SDS011;2662;51.194;6.614;2023-04-25T13:42:22;5.73;;;1.30;;
5277;SDS011;2662;51.194;6.614;2023-04-25T13:44:49;3.00;;;1.43;;
5277;SDS011;2662;51.194;6.614;2023-04-25T13:47:16;3.57;;;1.23;;
5277;SDS011;2662;51.194;6.614;2023-04-25T13:49:43;6.30;;;1.10;;
5277;SDS011;2662;51.194;6.614;2023-04-25T13:52:11;5.53;;;1.17;;
5277;SDS011;2662;51.194;6.614;2023-04-25T13:54:37;5.70;;;1.77;;
5277;SDS011;2662;51.194;6.614;2023-04-25T13:57:04;2.63;;;1.13;;
5277;SDS011;2662;51.194;6.614;2023-04-25T13:59:31;4.10;;;1.30;;
5277;SDS011;2662;51.194;6.614;2023-04-25T14:01:58;1.87;;;1.00;;
5277;SDS011;2662;51.194;6.614;2023-04-25T14:04:25;6.83;;;1.80;;
5277;SDS011;2662;51.194;6.614;2023-04-25T14:06:52;7.60;;;1.23;;
5277;SDS011;2662;51.194;6.614;2023-04-25T14:09:21;9.33;;;1.80;;
5277;SDS011;2662;51.194;6.614;2023-04-25T14:11:50;3.87;;;1.57;;
5277;SDS011;2662;51.194;6.614;2023-04-25T14:14:17;2.00;;;1.37;;
5277;SDS011;2662;51.194;6.614;2023-04-25T14:16:44;5.83;;;1.17;;
5277;SDS011;2662;51.194;6.614;2023-04-25T14:19:13;8.93;;;1.50;;
5277;SDS011;2662;51.194;6.614;2023-04-25T14:21:39;3.77;;;1.50;;
5277;SDS011;2662;51.194;6.614;2023-04-25T14:24:06;7.50;;;1.20;;
5277;SDS011;2662;51.194;6.614;2023-04-25T14:26:37;6.73;;;2.03;;
5277;SDS011;2662;51.194;6.614;2023-04-25T14:29:04;8.63;;;1.60;;
5277;SDS011;2662;51.194;6.614;2023-04-25T14:31:32;1.97;;;1.50;;
5277;SDS011;2662;51.194;6.614;2023-04-25T14:33:59;3.70;;;1.30;;
5277;SDS011;2662;51.194;6.614;2023-04-25T14:36:25;8.57;;;1.60;;
5277;SDS011;2662;51.194;6.614;2023-04-25T14:38:54;3.00;;;1.40;;
5277;SDS011;2662;51.194;6.614;2023-04-25T14:41:20;5.40;;;1.50;;
5277;SDS011;2662;51.194;6.614;2023-04-25T14:43:49;4.53;;;1.80;;
5277;SDS011;2662;51.194;6.614;2023-04-25T14:46:16;11.53;;;1.60;;
5277;SDS011;2662;51.194;6.614;2023-04-25T14:48:42;6.53;;;1.63;;
5277;SDS011;2662;51.194;6.614;2023-04-25T14:51:09;9.03;;;1.50;;
5277;SDS011;2662;51.194;6.614;2023-04-25T14:53:36;3.17;;;1.60;;
5277;SDS011;2662;51.194;6.614;2023-04-25T14:56:03;5.20;;;1.30;;
5277;SDS011;2662;51.194;6.614;2023-04-25T14:58:30;3.27;;;1.37;;
5277;SDS011;2662;51.194;6.614;2023-04-25T15:00:58;3.47;;;1.60;;
5277;SDS011;2662;51.194;6.614;2023-04-25T15:03:25;6.13;;;1.50;;
5277;SDS011;2662;51.194;6.614;2023-04-25T15:05:52;2.60;;;0.83;;
5277;SDS011;2662;51.194;6.614;2023-04-25T15:08:20;3.83;;;1.23;;
5277;SDS011;2662;51.194;6.614;2023-04-25T15:10:47;2.00;;;1.03;;
5277;SDS011;2662;51.194;6.614;2023-04-25T15:13:14;2.53;;;1.17;;
5277;SDS011;2662;51.194;6.614;2023-04-25T15:15:41;4.40;;;1.00;;